Time;durP1;ratioP1;P1;durP2;ratioP2;P2;SDS_P1;SDS_P2;PMS_P1;PMS_P2;Temp;Humidity;BMP_temperature;BMP_pressure;BME280_temperature;BME280_humidity;BME280_pressure;Samples;Min_cycle;Max_cycle;Signal;HPM_P1;HPM_P2
2022/01/01 00:05:24;;;;;;;0.10;0.08;;;9.70;63.90;;;;;;20019983;29;20142;-58
2022/01/01 00:17:21;;;;;;;0.00;0.00;;;9.40;66.20;;;;;;19779940;29;20046;-56
2022/01/01 00:28:49;;;;;;;0.00;0.00;;;9.20;64.70;;;;;;19819555;29;20070;-58
2022/01/01 00:40:11;;;;;;;0.00;0.00;;;9.40;64.30;;;;;;19802670;30;20116;-56
2022/01/01 00:52:02;;;;;;;0.00;0.00;;;9.60;65.10;;;;;;19728211;30;20521;-56
2022/01/01 01:03:29;;;;;;;0.03;0.00;;;9.50;65.60;;;;;;19564860;30;20089;-57
2022/01/01 01:15:18;;;;;;;0.20;0.00;;;9.50;62.40;;;;;;19551273;30;20091;-58
2022/01/01 01:27:25;;;;;;;0.10;0.00;;;10.60;59.30;;;;;;19923570;29;20089;-56
2022/01/01 01:39:21;;;;;;;0.00;0.00;;;10.50;59.90;;;;;;19966742;29;20070;-58
2022/01/01 01:51:24;;;;;;;0.00;0.00;;;11.80;56.00;;;;;;19944537;29;20134;-58
2022/01/01 02:02:46;;;;;;;0.00;0.00;;;12.10;55.70;;;;;;20065478;29;20118;-54
2022/01/01 02:27:03;;;;;;;0.00;0.00;;;14.10;46.40;;;;;;19944813;29;20174;-55
2022/01/01 02:38:58;;;;;;;0.10;0.00;;;13.30;49.60;;;;;;20077910;29;20590;-57
2022/01/01 02:50:55;;;;;;;0.00;0.00;;;12.40;53.00;;;;;;20228651;29;20112;-57
2022/01/01 03:02:49;;;;;;;0.00;0.00;;;10.80;57.50;;;;;;20379708;29;20048;-54
2022/01/01 03:14:58;;;;;;;0.17;0.00;;;9.50;61.30;;;;;;20400048;29;20190;-58
2022/01/01 03:26:51;;;;;;;0.00;0.00;;;8.90;60.60;;;;;;20400840;29;20134;-57
2022/01/01 03:38:46;;;;;;;0.00;0.00;;;8.60;62.40;;;;;;20400974;29;20055;-56
2022/01/01 03:50:41;;;;;;;0.00;0.00;;;8.40;62.50;;;;;;20328606;29;20048;-58
2022/01/01 04:02:37;;;;;;;0.17;0.00;;;8.50;64.00;;;;;;20171955;29;20081;-55
2022/01/01 04:14:17;;;;;;;0.00;0.00;;;8.50;60.80;;;;;;19964732;29;20142;-58
2022/01/01 04:25:40;;;;;;;0.00;0.00;;;9.30;61.20;;;;;;19800791;29;20091;-55
2022/01/01 04:37:24;;;;;;;0.08;0.00;;;9.40;60.20;;;;;;19803089;29;20543;-55
2022/01/01 04:48:46;;;;;;;0.00;0.00;;;9.20;59.30;;;;;;19816995;29;20523;-56
2022/01/01 05:00:20;;;;;;;0.00;0.00;;;9.40;57.60;;;;;;19800438;29;20091;-58
2022/01/01 05:12:15;;;;;;;0.00;0.00;;;11.40;43.90;;;;;;19663521;30;20079;-58
2022/01/01 05:23:49;;;;;;;0.20;0.10;;;13.90;44.90;;;;;;19809751;29;20078;-55
2022/01/01 05:35:37;;;;;;;0.00;0.00;;;13.30;46.20;;;;;;19946414;29;20054;-55
2022/01/01 05:47:33;;;;;;;0.38;0.00;;;12.30;47.90;;;;;;19965504;29;20073;-57
2022/01/01 05:59:29;;;;;;;0.15;0.00;;;12.60;49.00;;;;;;20019311;29;20054;-57
2022/01/01 06:11:24;;;;;;;0.05;0.00;;;11.90;49.30;;;;;;19889389;29;20073;-57
2022/01/01 06:23:25;;;;;;;0.05;0.00;;;11.50;50.50;;;;;;19866871;29;20082;-57
2022/01/01 06:34:48;;;;;;;0.13;0.00;;;11.60;50.10;;;;;;19845211;29;20285;-57
2022/01/01 06:46:48;;;;;;;0.08;0.00;;;11.80;50.50;;;;;;19865754;29;20158;-57
2022/01/01 06:58:44;;;;;;;0.00;0.00;;;11.60;50.50;;;;;;19914094;29;20116;-57
2022/01/01 07:10:39;;;;;;;0.00;0.00;;;11.70;51.00;;;;;;19965346;29;20575;-52
2022/01/01 07:22:41;;;;;;;0.20;0.00;;;11.90;50.30;;;;;;19928114;29;20515;-56
2022/01/01 07:34:36;;;;;;;0.00;0.00;;;11.90;50.60;;;;;;19878514;29;20114;-58
2022/01/01 07:46:10;;;;;;;0.00;0.00;;;11.90;51.10;;;;;;19880223;29;20082;-58
2022/01/01 07:58:05;;;;;;;0.00;0.00;;;11.90;51.10;;;;;;19909237;29;20090;-53
2022/01/01 08:09:38;;;;;;;0.00;0.00;;;12.30;49.70;;;;;;19953443;29;20086;-54
2022/01/01 08:21:23;;;;;;;0.08;0.00;;;13.00;50.00;;;;;;20027025;29;20221;-58
2022/01/01 08:33:01;;;;;;;0.17;0.00;;;13.90;47.30;;;;;;20027384;29;20146;-55
2022/01/01 08:44:58;;;;;;;0.00;0.00;;;14.50;46.20;;;;;;19972641;29;20070;-58
2022/01/01 08:56:51;;;;;;;0.38;0.10;;;14.80;45.50;;;;;;20023456;29;20042;-55
2022/01/01 09:08:21;;;;;;;0.05;0.00;;;15.30;45.50;;;;;;20097121;29;20088;-53
2022/01/01 09:20:27;;;;;;;0.00;0.00;;;15.70;44.90;;;;;;20173426;29;20080;-56
2022/01/01 09:32:27;;;;;;;0.10;0.00;;;16.20;44.40;;;;;;19993261;29;20086;-58
2022/01/01 09:44:24;;;;;;;0.10;0.10;;;16.60;43.40;;;;;;20144429;29;20112;-56
2022/01/01 09:56:19;;;;;;;0.10;0.00;;;16.60;42.90;;;;;;20048778;29;20126;-57
2022/01/01 10:07:47;;;;;;;0.10;0.00;;;16.90;44.00;;;;;;20096895;29;20089;-60
2022/01/01 10:19:10;;;;;;;0.05;0.00;;;17.20;43.10;;;;;;19993597;29;20057;-58
2022/01/01 10:30:54;;;;;;;0.03;0.00;;;17.50;42.20;;;;;;20092882;29;20129;-59
2022/01/01 10:42:29;;;;;;;0.05;0.00;;;17.70;42.10;;;;;;20118862;29;20482;-57
2022/01/01 10:54:29;;;;;;;1.88;0.40;;;17.70;42.60;;;;;;20171335;29;20170;-58
2022/01/01 11:06:34;;;;;;;0.00;0.00;;;18.00;41.90;;;;;;20109277;29;20073;-57
2022/01/01 11:18:29;;;;;;;0.43;0.38;;;18.00;40.30;;;;;;20000859;29;20042;-58
2022/01/01 11:30:15;;;;;;;0.20;0.03;;;17.90;41.60;;;;;;20001400;29;20085;-57
2022/01/01 11:41:43;;;;;;;0.30;0.10;;;17.80;40.80;;;;;;20125081;29;20438;-57
2022/01/01 11:53:42;;;;;;;0.20;0.10;;;18.00;41.60;;;;;;20180595;29;20562;-56
2022/01/01 12:05:09;;;;;;;0.70;0.28;;;18.10;40.50;;;;;;20206650;29;20037;-56
2022/01/01 12:16:42;;;;;;;0.20;0.10;;;18.00;39.90;;;;;;20284440;29;20047;-58
2022/01/01 12:28:16;;;;;;;0.30;0.10;;;18.00;40.50;;;;;;20166878;29;20112;-56
2022/01/01 12:39:38;;;;;;;0.28;0.10;;;17.80;41.50;;;;;;20134576;29;20101;-57
2022/01/01 12:51:12;;;;;;;0.22;0.10;;;17.60;40.90;;;;;;20101046;29;20545;-58
2022/01/01 13:02:45;;;;;;;0.00;0.00;;;17.40;40.40;;;;;;20023829;29;20081;-57
2022/01/01 13:14:45;;;;;;;0.22;0.10;;;17.60;40.90;;;;;;19927450;29;20081;-58
2022/01/01 13:26:40;;;;;;;0.13;0.10;;;17.30;40.50;;;;;;20096948;29;20553;-58
2022/01/01 13:38:36;;;;;;;0.52;0.10;;;17.10;40.40;;;;;;20037826;29;20045;-58
2022/01/01 13:50:43;;;;;;;0.25;0.10;;;16.90;40.10;;;;;;20025773;29;20116;-58
2022/01/01 14:02:36;;;;;;;1.75;0.10;;;16.50;39.90;;;;;;20172175;29;20120;-56
2022/01/01 14:27:13;;;;;;;0.25;0.00;;;16.00;41.40;;;;;;20116515;29;20156;-59
2022/01/01 14:39:18;;;;;;;0.10;0.00;;;15.70;42.70;;;;;;19898141;29;20577;-59
2022/01/01 14:51:26;;;;;;;0.55;0.10;;;15.40;41.90;;;;;;19794738;29;20082;-56
2022/01/01 15:03:05;;;;;;;1.08;0.00;;;15.10;42.40;;;;;;19851905;29;20079;-58
2022/01/01 15:14:27;;;;;;;0.00;0.00;;;14.30;43.10;;;;;;19934308;29;20646;-59
2022/01/01 15:26:01;;;;;;;0.10;0.00;;;13.30;45.40;;;;;;20017831;29;20081;-59
2022/01/01 15:37:25;;;;;;;0.10;0.00;;;12.50;47.20;;;;;;20015208;29;20102;-53
2022/01/01 15:48:46;;;;;;;0.15;0.00;;;11.70;51.40;;;;;;19909648;29;20090;-54
2022/01/01 16:00:41;;;;;;;0.40;0.00;;;10.90;52.00;;;;;;19954013;29;20179;-56
2022/01/01 16:12:03;;;;;;;0.00;0.00;;;10.60;52.70;;;;;;20144322;29;20046;-54
2022/01/01 16:24:16;;;;;;;0.00;0.00;;;10.00;51.60;;;;;;20156098;29;20088;-53
2022/01/01 16:36:09;;;;;;;0.73;0.00;;;9.50;56.30;;;;;;20101080;29;20494;-56
2022/01/01 16:48:09;;;;;;;0.32;0.10;;;8.90;57.40;;;;;;20100179;29;20081;-54
2022/01/01 16:59:45;;;;;;;0.10;0.00;;;8.60;58.30;;;;;;19934313;29;20594;-58
2022/01/01 17:11:35;;;;;;;0.00;0.00;;;8.50;60.20;;;;;;19879617;29;20665;-56
2022/01/01 17:23:10;;;;;;;0.13;0.00;;;8.20;60.70;;;;;;19937819;29;20511;-56
2022/01/01 17:46:31;;;;;;;0.10;0.00;;;8.00;58.90;;;;;;19916142;29;20464;-56
2022/01/01 17:58:18;;;;;;;;;;;8.30;59.20;;;;;;19894204;29;20051;-56
2022/01/01 18:10:26;;;;;;;0.00;0.00;;;7.90;57.00;;;;;;19810367;29;20001;-54
2022/01/01 18:21:48;;;;;;;0.10;0.10;;;8.70;56.30;;;;;;19947284;29;20492;-57
2022/01/01 18:33:21;;;;;;;0.40;0.00;;;8.30;58.80;;;;;;20052708;29;20680;-58
2022/01/01 18:45:09;;;;;;;0.17;0.00;;;7.90;59.90;;;;;;20295633;29;20048;-54
2022/01/01 18:57:08;;;;;;;0.13;0.00;;;7.60;62.60;;;;;;20323386;29;20068;-58
2022/01/01 19:08:56;;;;;;;0.10;0.00;;;7.40;62.50;;;;;;20187849;29;20115;-57
2022/01/01 19:20:59;;;;;;;0.10;0.00;;;7.60;63.60;;;;;;20094051;29;20159;-58
2022/01/01 19:32:27;;;;;;;0.10;0.00;;;7.40;63.40;;;;;;20198620;29;20076;-58
2022/01/01 19:44:10;;;;;;;0.10;0.00;;;7.40;60.80;;;;;;20045811;29;20074;-55
2022/01/01 19:55:49;;;;;;;0.25;0.03;;;7.60;61.50;;;;;;20152187;29;20137;-56
2022/01/01 20:07:28;;;;;;;0.00;0.00;;;7.30;62.50;;;;;;20204684;29;20450;-58
2022/01/01 20:19:15;;;;;;;0.55;0.28;;;7.30;61.80;;;;;;20096925;29;20109;-62
2022/01/01 20:31:21;;;;;;;0.25;0.10;;;7.40;62.20;;;;;;20090182;29;20046;-58
2022/01/01 20:43:17;;;;;;;0.73;0.00;;;7.50;61.00;;;;;;20075851;29;20474;-59
2022/01/01 20:55:04;;;;;;;0.00;0.00;;;7.10;61.10;;;;;;20198239;29;20053;-60
2022/01/01 21:06:52;;;;;;;0.32;0.10;;;7.00;63.00;;;;;;20257519;29;20045;-63
2022/01/01 21:18:21;;;;;;;1.98;0.10;;;6.70;63.90;;;;;;20317543;29;20169;-62
2022/01/01 21:29:54;;;;;;;0.40;0.00;;;7.00;62.60;;;;;;20432110;29;20098;-61
2022/01/01 21:41:52;;;;;;;0.00;0.00;;;6.70;63.40;;;;;;20470431;28;20059;-55
2022/01/01 21:53:46;;;;;;;0.17;0.00;;;6.60;64.30;;;;;;20491028;28;20407;-59
2022/01/01 22:05:41;;;;;;;0.00;0.00;;;6.70;64.50;;;;;;20494356;28;20546;-60
2022/01/01 22:17:27;;;;;;;0.28;0.10;;;6.80;64.50;;;;;;20575158;28;20054;-64
2022/01/01 22:29:35;;;;;;;0.15;0.00;;;7.20;60.90;;;;;;20639784;28;20763;-64
2022/01/01 22:41:42;;;;;;;0.20;0.00;;;7.40;62.10;;;;;;20648243;28;20134;-63
2022/01/01 22:53:53;;;;;;;0.20;0.10;;;7.50;61.30;;;;;;20606251;28;20078;-63
2022/01/01 23:05:42;;;;;;;0.60;0.00;;;6.90;62.40;;;;;;20650069;28;20153;-67
2022/01/01 23:17:25;;;;;;;0.45;0.13;;;6.90;62.80;;;;;;20683877;28;20073;-69
2022/01/01 23:29:33;;;;;;;0.32;0.10;;;6.40;66.70;;;;;;20636626;28;20042;-54
2022/01/01 23:41:17;;;;;;;0.00;0.00;;;6.40;66.50;;;;;;20695930;28;20486;-62
2022/01/01 23:53:02;;;;;;;0.20;0.00;;;6.40;65.80;;;;;;20795317;28;20041;-60
